Lithonia, GA (30038)

6:32 AM EDT on August 30, 2015 (GMT -0400)
Havenridge | | Change Station
CLOSE
Current Station
Personal Weather Station
Location: Conyers, GA
Elevation: 879 ft
Nearby Weather Stations

Elev 879 ft 33.67 °N, 84.08 °W | Updated 9 minutes ago

Overcast
Overcast
69.4 °F
Feels Like 69.4 °F
N
0.0
Wind Variable Wind from West

Today
High -- | Low -- °F
--% Chance of Precip.
Yesterday
High -- | Low -- °F
Precip. -- in
7:09 AM 8:05 PM
Full, 99% visible
Pressure 30.07 in
Visibility 10.0 miles
Clouds Scattered Clouds 4800 ft
Overcast 9000 ft
Dew Point 61 °F
Humidity 74%
Rainfall 0.00 in
Snow Depth Not available.
UV 0 out of 12
Pollen 8.00 out of 12
Air Quality Not available.
Flu Activity Not available.
METAR KATL 300952Z 05006KT 10SM SCT048 OVC090 22/18 A3010 RMK AO2 SLP183 T02220178
Pressure 30.07 in
Visibility 10.0 miles
Clouds Scattered Clouds 4800 ft
Overcast 9000 ft
Dew Point 61 °F
Humidity 74%
Rainfall 0.00 in
Snow Depth Not available.
UV 0 out of 12
Pollen 8.00 out of 12
Air Quality Not available.
Flu Activity Not available.
METAR KATL 300952Z 05006KT 10SM SCT048 OVC090 22/18 A3010 RMK AO2 SLP183 T02220178

10-Day Weather Forecast

×

Almanac

Astronomy

Aug. 30, 2015 Rise Set
Actual Time
Civil Twilight
Nautical Twilight
Astronomical Twilight
Moon
Length of Visible Light
Length of Day
Tomorrow will be .
, % of the Moon is Illuminated

Today's Extremes

State Highs State Lows

Community

WunderPhotos

Upload Photos

1,850,923 photos uploaded!

WunderBlogs® & News

Nearby

Air Quality

  Air Quality AQ Index Pollutant
Not available.

Snow Depth

Station Depth Elevation

Earthquake Activity

City Distance Mag. Time & Date
Minimum magnitude displayed is 2.5.

Coastal Water Temperatures

Place Temperature

Stations

Nearby Weather Stations

Station Location Temp. Windchill Dew Point Humidity Wind Precip. Elev Updated Type